Time;durP1;ratioP1;P1;durP2;ratioP2;P2;SDS_P1;SDS_P2;PMS_P1;PMS_P2;Temp;Humidity;BMP_temperature;BMP_pressure;BME280_temperature;BME280_humidity;BME280_pressure;Samples;Min_cycle;Max_cycle;Signal;HPM_P1;HPM_P2
2022/03/20 00:00:11;;;;;;;14.23;11.20;;;;;;;;;;5070409;28;20190;-71
2022/03/20 00:02:38;;;;;;;14.05;10.70;;;;;;;;;;5072072;28;20699;-72
2022/03/20 00:05:07;;;;;;;14.63;11.32;;;;;;;;;;5073028;28;20198;-72
2022/03/20 00:07:34;;;;;;;15.90;11.65;;;;;;;;;;5067398;28;20194;-71
2022/03/20 00:10:01;;;;;;;13.13;10.55;;;;;;;;;;5068497;28;20564;-72
2022/03/20 00:12:28;;;;;;;19.25;10.90;;;;;;;;;;5071704;28;20554;-72
2022/03/20 00:14:55;;;;;;;15.20;11.50;;;;;;;;;;5066036;28;20665;-72
2022/03/20 00:17:22;;;;;;;19.30;11.85;;;;;;;;;;5071297;28;20190;-72
2022/03/20 00:19:50;;;;;;;14.65;11.75;;;;;;;;;;5070409;28;20277;-73
2022/03/20 00:22:18;;;;;;;16.17;12.52;;;;;;;;;;5071853;28;20557;-73
2022/03/20 00:24:47;;;;;;;14.25;11.63;;;;;;;;;;5069451;28;20230;-73
2022/03/20 00:27:15;;;;;;;12.98;10.65;;;;;;;;;;5062027;28;20191;-73
2022/03/20 00:29:42;;;;;;;13.45;10.70;;;;;;;;;;5058994;28;20202;-73
2022/03/20 00:32:10;;;;;;;18.13;11.82;;;;;;;;;;5069928;28;20660;-73
2022/03/20 00:34:38;;;;;;;14.48;12.52;;;;;;;;;;5072601;28;20190;-73
2022/03/20 00:37:06;;;;;;;17.25;12.45;;;;;;;;;;5068492;28;20199;-73
2022/03/20 00:39:35;;;;;;;15.35;10.27;;;;;;;;;;5063257;28;20218;-73
2022/03/20 00:42:02;;;;;;;14.68;10.90;;;;;;;;;;5068850;28;20759;-73
2022/03/20 00:44:29;;;;;;;18.60;13.70;;;;;;;;;;5070538;28;20217;-73
2022/03/20 00:46:56;;;;;;;16.63;12.80;;;;;;;;;;5069900;28;20192;-73
2022/03/20 00:49:23;;;;;;;19.10;12.40;;;;;;;;;;5072114;28;20197;-72
2022/03/20 00:51:50;;;;;;;17.65;11.32;;;;;;;;;;5070346;28;20221;-72
2022/03/20 00:54:17;;;;;;;15.48;11.75;;;;;;;;;;5068973;28;20205;-71
2022/03/20 00:56:46;;;;;;;14.27;11.50;;;;;;;;;;5070124;28;20264;-72
2022/03/20 00:59:13;;;;;;;17.80;14.63;;;;;;;;;;5053951;28;20289;-71
2022/03/20 01:01:42;;;;;;;13.05;10.65;;;;;;;;;;5067539;28;20187;-71
2022/03/20 01:04:09;;;;;;;21.88;12.35;;;;;;;;;;5071025;28;20222;-71
2022/03/20 01:06:36;;;;;;;18.27;13.00;;;;;;;;;;5068962;28;20277;-71
2022/03/20 01:09:04;;;;;;;15.27;11.82;;;;;;;;;;5066999;28;20194;-71
2022/03/20 01:11:32;;;;;;;16.33;12.13;;;;;;;;;;5057459;28;20605;-71
2022/03/20 01:14:01;;;;;;;19.35;12.73;;;;;;;;;;5066158;28;20202;-71
2022/03/20 01:16:28;;;;;;;14.55;11.98;;;;;;;;;;5060887;28;20209;-73
2022/03/20 01:18:55;;;;;;;14.95;12.07;;;;;;;;;;5069351;28;20267;-73
2022/03/20 01:21:22;;;;;;;15.98;12.75;;;;;;;;;;5066598;28;20201;-73
2022/03/20 01:23:49;;;;;;;18.50;13.15;;;;;;;;;;5067498;28;20226;-73
2022/03/20 01:26:16;;;;;;;13.02;11.40;;;;;;;;;;5070235;28;20680;-74
2022/03/20 01:28:43;;;;;;;15.02;10.68;;;;;;;;;;5083209;28;20628;-73
2022/03/20 01:31:12;;;;;;;16.17;12.65;;;;;;;;;;5063059;28;20194;-73
2022/03/20 01:33:39;;;;;;;14.43;11.38;;;;;;;;;;5070885;28;20194;-73
2022/03/20 01:36:07;;;;;;;17.80;12.50;;;;;;;;;;5069131;28;20553;-73
2022/03/20 01:38:35;;;;;;;18.23;13.35;;;;;;;;;;5061370;28;20194;-74
2022/03/20 01:41:02;;;;;;;16.38;13.02;;;;;;;;;;5070621;28;20251;-73
2022/03/20 01:43:29;;;;;;;19.50;12.52;;;;;;;;;;5070892;28;20275;-74
2022/03/20 01:45:56;;;;;;;17.55;12.65;;;;;;;;;;5062029;28;20197;-74
2022/03/20 01:48:24;;;;;;;16.38;12.25;;;;;;;;;;5080080;28;20198;-74
2022/03/20 01:50:51;;;;;;;15.98;10.88;;;;;;;;;;5070532;28;20530;-74
2022/03/20 01:53:20;;;;;;;15.18;11.82;;;;;;;;;;5067698;28;20207;-73
2022/03/20 01:55:47;;;;;;;16.35;11.68;;;;;;;;;;5078156;28;20239;-74
2022/03/20 01:58:16;;;;;;;15.23;11.55;;;;;;;;;;5067813;28;20186;-74
2022/03/20 02:00:44;;;;;;;14.20;11.00;;;;;;;;;;5060533;28;20195;-73
2022/03/20 02:03:11;;;;;;;16.55;13.02;;;;;;;;;;5070765;28;20573;-72
2022/03/20 02:05:39;;;;;;;15.25;12.05;;;;;;;;;;5070301;28;20186;-72
2022/03/20 02:08:06;;;;;;;14.90;11.88;;;;;;;;;;5069706;28;20199;-72
2022/03/20 02:10:36;;;;;;;16.98;12.07;;;;;;;;;;5067476;28;20202;-73
2022/03/20 02:13:03;;;;;;;15.50;11.93;;;;;;;;;;5069856;28;20243;-73
2022/03/20 02:15:30;;;;;;;13.02;11.52;;;;;;;;;;5062063;28;20190;-73
2022/03/20 02:17:58;;;;;;;12.77;11.25;;;;;;;;;;5069872;28;20240;-73
2022/03/20 02:20:25;;;;;;;13.18;11.43;;;;;;;;;;5070517;28;20218;-73
2022/03/20 02:22:54;;;;;;;18.52;12.65;;;;;;;;;;5065994;28;20541;-72
2022/03/20 02:25:21;;;;;;;16.15;11.93;;;;;;;;;;5071044;28;20313;-73
2022/03/20 02:27:48;;;;;;;14.15;12.15;;;;;;;;;;5070243;28;20194;-73
2022/03/20 02:30:18;;;;;;;18.65;13.45;;;;;;;;;;5066899;28;20186;-72
2022/03/20 02:32:46;;;;;;;15.63;10.80;;;;;;;;;;5071778;28;20218;-72
2022/03/20 02:35:15;;;;;;;17.23;12.10;;;;;;;;;;5067429;28;20216;-72
2022/03/20 02:37:43;;;;;;;14.30;11.25;;;;;;;;;;5072283;28;20194;-72
2022/03/20 02:40:12;;;;;;;16.60;12.00;;;;;;;;;;5072277;28;20194;-73
2022/03/20 02:42:41;;;;;;;18.63;12.70;;;;;;;;;;5074786;28;20695;-73
2022/03/20 02:45:10;;;;;;;18.30;12.60;;;;;;;;;;5070652;28;20218;-73
2022/03/20 02:47:38;;;;;;;14.98;11.45;;;;;;;;;;5069004;28;20216;-73
2022/03/20 02:50:07;;;;;;;15.05;11.80;;;;;;;;;;5073312;28;20230;-73
2022/03/20 02:52:46;;;;;;;17.20;13.70;;;;;;;;;;5069741;28;20206;-73
2022/03/20 02:55:14;;;;;;;14.25;11.82;;;;;;;;;;5073659;28;20665;-73
2022/03/20 02:57:41;;;;;;;16.98;11.90;;;;;;;;;;5071943;28;20197;-73
2022/03/20 03:00:10;;;;;;;16.50;11.52;;;;;;;;;;5065420;28;20252;-73
2022/03/20 03:02:39;;;;;;;17.25;12.15;;;;;;;;;;5088589;28;20279;-72
2022/03/20 03:05:06;;;;;;;14.43;11.32;;;;;;;;;;5080890;28;20237;-72
2022/03/20 03:10:55;;;;;;;15.35;11.85;;;;;;;;;;5071851;28;20281;-73
2022/03/20 03:13:09;;;;;;;13.95;11.50;;;;;;;;;;5071009;28;20197;-73
2022/03/20 03:15:36;;;;;;;17.75;11.90;;;;;;;;;;5067766;28;20197;-73
2022/03/20 03:18:03;;;;;;;15.63;11.27;;;;;;;;;;5073002;28;20603;-74
2022/03/20 03:20:30;;;;;;;13.88;10.82;;;;;;;;;;5074593;28;20281;-74
2022/03/20 03:22:57;;;;;;;17.67;11.80;;;;;;;;;;5072180;28;20645;-72
2022/03/20 03:25:25;;;;;;;15.55;11.82;;;;;;;;;;5072062;28;20214;-74
2022/03/20 03:27:52;;;;;;;15.77;11.43;;;;;;;;;;5071032;28;20671;-74
2022/03/20 03:30:19;;;;;;;14.80;11.32;;;;;;;;;;5064766;28;20379;-74
2022/03/20 03:32:47;;;;;;;16.15;11.68;;;;;;;;;;5071689;28;20198;-74
2022/03/20 03:38:00;;;;;;;16.92;13.55;;;;;;;;;;5068068;28;20672;-74
2022/03/20 03:40:30;;;;;;;16.60;12.32;;;;;;;;;;5075325;28;20707;-74
2022/03/20 03:42:57;;;;;;;14.98;11.30;;;;;;;;;;5070601;28;20294;-74
2022/03/20 03:45:25;;;;;;;13.70;10.98;;;;;;;;;;5067407;28;20247;-74
2022/03/20 03:47:52;;;;;;;14.65;12.13;;;;;;;;;;5067282;28;20194;-74
2022/03/20 03:50:19;;;;;;;15.43;11.38;;;;;;;;;;5075209;28;20252;-74
2022/03/20 03:52:47;;;;;;;15.57;11.55;;;;;;;;;;5069728;28;20293;-74
2022/03/20 03:55:14;;;;;;;14.60;11.18;;;;;;;;;;5070268;28;20190;-74
2022/03/20 03:57:45;;;;;;;17.60;11.27;;;;;;;;;;5074062;28;20209;-74
2022/03/20 04:00:12;;;;;;;12.80;10.40;;;;;;;;;;5071878;28;20201;-75
2022/03/20 04:02:39;;;;;;;14.65;10.60;;;;;;;;;;5072968;28;20213;-74
2022/03/20 04:05:07;;;;;;;17.40;12.48;;;;;;;;;;5070545;28;20663;-74
2022/03/20 04:07:35;;;;;;;17.15;11.95;;;;;;;;;;5067396;28;20190;-74
2022/03/20 04:10:02;;;;;;;19.38;12.77;;;;;;;;;;5071581;28;20221;-73
2022/03/20 04:12:30;;;;;;;13.70;11.63;;;;;;;;;;5070626;28;20204;-75
2022/03/20 04:15:02;;;;;;;16.00;12.02;;;;;;;;;;5063501;28;20199;-75
2022/03/20 04:17:29;;;;;;;17.73;11.40;;;;;;;;;;5070229;28;20222;-74
2022/03/20 04:19:56;;;;;;;13.43;10.65;;;;;;;;;;5071601;28;20194;-75
2022/03/20 04:22:23;;;;;;;15.82;11.10;;;;;;;;;;5069676;28;20194;-74
2022/03/20 04:24:51;;;;;;;12.93;11.18;;;;;;;;;;5029419;28;1036832;-74
2022/03/20 04:27:18;;;;;;;18.60;11.80;;;;;;;;;;5065980;28;20277;-74
2022/03/20 04:29:45;;;;;;;12.48;11.23;;;;;;;;;;5066703;28;20198;-74
2022/03/20 04:32:14;;;;;;;14.05;11.50;;;;;;;;;;5070198;28;20194;-74
2022/03/20 04:34:41;;;;;;;18.33;11.30;;;;;;;;;;5072671;28;20194;-74
2022/03/20 04:37:08;;;;;;;13.95;11.65;;;;;;;;;;5069397;28;20194;-74
2022/03/20 04:39:35;;;;;;;16.55;10.80;;;;;;;;;;5068498;28;20217;-74
2022/03/20 04:42:03;;;;;;;18.77;11.65;;;;;;;;;;5072017;28;20198;-74
2022/03/20 04:44:30;;;;;;;13.75;11.10;;;;;;;;;;5066737;28;20276;-75
2022/03/20 04:46:57;;;;;;;18.35;11.23;;;;;;;;;;5069288;28;20194;-75
2022/03/20 05:00:21;;;;;;;16.05;12.23;;;;;;;;;;5064817;28;20285;-75
2022/03/20 05:02:48;;;;;;;13.23;10.93;;;;;;;;;;5067554;28;20190;-73
2022/03/20 05:05:18;;;;;;;13.80;10.80;;;;;;;;;;5070347;28;20439;-73
2022/03/20 05:07:45;;;;;;;18.38;12.77;;;;;;;;;;5068567;28;20194;-73
2022/03/20 05:15:41;;;;;;;15.93;11.30;;;;;;;;;;5067373;28;20204;-73
2022/03/20 05:18:08;;;;;;;17.85;12.45;;;;;;;;;;5069850;28;20557;-74
2022/03/20 05:20:37;;;;;;;12.63;9.95;;;;;;;;;;5071148;28;20194;-74
2022/03/20 05:23:04;;;;;;;13.90;10.48;;;;;;;;;;5071368;28;20591;-74
2022/03/20 05:25:31;;;;;;;20.08;10.52;;;;;;;;;;5065785;28;20233;-74
2022/03/20 05:27:58;;;;;;;15.63;11.50;;;;;;;;;;5070623;28;20244;-74
2022/03/20 05:30:26;;;;;;;18.38;13.02;;;;;;;;;;5064103;28;20195;-74
2022/03/20 05:32:54;;;;;;;15.90;10.77;;;;;;;;;;5070971;28;20186;-74
2022/03/20 05:35:21;;;;;;;12.73;10.90;;;;;;;;;;5069699;28;20255;-74
2022/03/20 05:37:49;;;;;;;13.02;10.60;;;;;;;;;;5065786;28;20277;-73
2022/03/20 05:40:17;;;;;;;16.60;10.45;;;;;;;;;;5071377;28;20205;-73
2022/03/20 05:42:44;;;;;;;15.85;10.82;;;;;;;;;;5070968;28;20194;-73
2022/03/20 05:45:12;;;;;;;14.02;10.80;;;;;;;;;;5068528;28;20320;-74
2022/03/20 05:47:39;;;;;;;18.52;11.32;;;;;;;;;;5067102;28;20190;-74
2022/03/20 05:50:08;;;;;;;14.63;11.18;;;;;;;;;;5071247;28;20217;-74
2022/03/20 05:52:35;;;;;;;15.27;11.20;;;;;;;;;;5069604;28;20560;-74
2022/03/20 05:55:04;;;;;;;13.77;10.40;;;;;;;;;;5067400;28;20210;-74
2022/03/20 06:00:21;;;;;;;12.13;10.57;;;;;;;;;;5068845;28;20204;-73
2022/03/20 06:02:48;;;;;;;13.25;10.35;;;;;;;;;;5068356;28;20198;-73
2022/03/20 06:05:16;;;;;;;15.88;10.40;;;;;;;;;;5065259;28;20214;-75
2022/03/20 06:07:43;;;;;;;12.65;11.35;;;;;;;;;;5069306;28;20562;-74
2022/03/20 06:10:12;;;;;;;14.60;10.45;;;;;;;;;;5062626;28;20213;-74
2022/03/20 06:12:40;;;;;;;14.88;11.35;;;;;;;;;;5070984;28;20261;-74
2022/03/20 06:15:09;;;;;;;12.15;10.00;;;;;;;;;;5063444;28;20194;-74
2022/03/20 06:17:38;;;;;;;13.90;9.38;;;;;;;;;;5067425;28;20201;-74
2022/03/20 06:20:06;;;;;;;14.00;11.35;;;;;;;;;;5070680;28;20252;-74
2022/03/20 06:22:33;;;;;;;14.23;10.23;;;;;;;;;;5064263;28;20793;-74
2022/03/20 06:25:00;;;;;;;13.65;10.90;;;;;;;;;;5068897;28;20224;-74
2022/03/20 06:27:28;;;;;;;12.02;9.90;;;;;;;;;;5069370;28;20197;-74
2022/03/20 06:29:55;;;;;;;14.63;10.50;;;;;;;;;;5065712;28;20679;-74
2022/03/20 06:32:22;;;;;;;13.63;10.13;;;;;;;;;;5069250;28;20661;-74
2022/03/20 06:34:50;;;;;;;14.18;10.00;;;;;;;;;;5070476;28;20603;-74
2022/03/20 06:37:17;;;;;;;15.05;11.88;;;;;;;;;;5058403;28;20194;-75
2022/03/20 06:39:44;;;;;;;14.25;10.88;;;;;;;;;;5068225;28;20756;-74
2022/03/20 06:42:11;;;;;;;17.73;12.05;;;;;;;;;;5063610;28;20384;-74
2022/03/20 06:44:39;;;;;;;15.52;11.10;;;;;;;;;;5062973;28;20214;-73
2022/03/20 06:47:09;;;;;;;12.70;10.70;;;;;;;;;;5064340;28;20194;-73
2022/03/20 06:49:36;;;;;;;14.18;12.52;;;;;;;;;;5073580;28;20201;-73
2022/03/20 06:52:03;;;;;;;16.63;10.75;;;;;;;;;;5059481;28;20202;-73
2022/03/20 06:54:30;;;;;;;18.77;12.90;;;;;;;;;;5073154;28;20206;-73
2022/03/20 06:56:57;;;;;;;14.35;10.63;;;;;;;;;;5070051;28;20563;-73
2022/03/20 06:59:24;;;;;;;17.10;10.65;;;;;;;;;;5067966;28;20660;-73
2022/03/20 07:01:53;;;;;;;15.50;11.70;;;;;;;;;;5059883;28;20744;-74
2022/03/20 07:04:21;;;;;;;13.50;11.30;;;;;;;;;;5061853;28;20223;-74
2022/03/20 07:06:48;;;;;;;20.45;12.50;;;;;;;;;;5067763;28;20191;-74
2022/03/20 07:09:15;;;;;;;12.90;9.68;;;;;;;;;;5066163;28;20657;-74
2022/03/20 07:11:42;;;;;;;12.40;10.02;;;;;;;;;;5055936;28;20194;-74
2022/03/20 07:14:09;;;;;;;17.65;12.05;;;;;;;;;;5065693;28;20199;-74
2022/03/20 07:16:38;;;;;;;15.77;13.27;;;;;;;;;;5063131;28;20186;-74
2022/03/20 07:19:08;;;;;;;13.93;11.77;;;;;;;;;;5070369;28;20194;-74
2022/03/20 07:21:35;;;;;;;12.82;9.95;;;;;;;;;;5072185;28;20714;-74
2022/03/20 07:24:03;;;;;;;14.45;10.48;;;;;;;;;;5069851;28;20221;-75
2022/03/20 07:29:33;;;;;;;14.80;11.50;;;;;;;;;;5060536;28;20328;-74
2022/03/20 07:32:01;;;;;;;16.88;12.27;;;;;;;;;;5070156;28;20194;-74
2022/03/20 07:34:30;;;;;;;14.07;10.07;;;;;;;;;;5073190;28;20281;-75
2022/03/20 07:36:57;;;;;;;15.05;10.55;;;;;;;;;;5069609;28;20194;-75
2022/03/20 07:39:24;;;;;;;13.65;10.55;;;;;;;;;;5068576;28;20195;-74
2022/03/20 07:41:51;;;;;;;14.60;11.02;;;;;;;;;;5073276;28;20194;-74
2022/03/20 07:44:18;;;;;;;20.20;12.25;;;;;;;;;;5071894;28;20202;-74
2022/03/20 07:46:45;;;;;;;16.20;12.35;;;;;;;;;;5071006;28;20239;-74
2022/03/20 07:49:13;;;;;;;15.55;12.25;;;;;;;;;;5069326;28;20197;-74
2022/03/20 07:51:43;;;;;;;17.10;12.60;;;;;;;;;;5068607;28;20287;-74
2022/03/20 07:54:10;;;;;;;16.23;12.10;;;;;;;;;;5057684;28;20195;-74
2022/03/20 07:56:37;;;;;;;17.13;11.35;;;;;;;;;;5063821;28;20206;-74
2022/03/20 07:59:06;;;;;;;14.30;11.95;;;;;;;;;;5067481;28;20194;-74
2022/03/20 08:01:33;;;;;;;12.57;11.18;;;;;;;;;;5071300;28;20198;-74
2022/03/20 08:04:00;;;;;;;26.23;14.55;;;;;;;;;;5066780;28;20656;-74
2022/03/20 08:06:27;;;;;;;19.95;12.48;;;;;;;;;;5072513;28;20302;-75
2022/03/20 08:08:59;;;;;;;15.25;11.30;;;;;;;;;;5067149;28;20202;-74
2022/03/20 08:11:26;;;;;;;15.27;11.90;;;;;;;;;;5071290;28;20186;-74
2022/03/20 08:13:53;;;;;;;17.20;13.05;;;;;;;;;;5063891;28;20195;-74
2022/03/20 08:16:22;;;;;;;14.63;12.60;;;;;;;;;;5076822;28;20197;-74
2022/03/20 08:18:49;;;;;;;16.23;12.88;;;;;;;;;;5075378;28;20544;-74
2022/03/20 08:21:16;;;;;;;19.33;12.25;;;;;;;;;;5071908;28;20187;-72
2022/03/20 08:23:44;;;;;;;19.95;12.90;;;;;;;;;;5059418;28;20720;-74
2022/03/20 08:26:12;;;;;;;15.98;11.07;;;;;;;;;;5069523;28;20214;-72
2022/03/20 08:28:41;;;;;;;16.98;11.45;;;;;;;;;;5067176;28;20214;-71
2022/03/20 08:31:09;;;;;;;18.08;12.27;;;;;;;;;;5070758;28;20187;-72
2022/03/20 08:33:36;;;;;;;15.35;12.18;;;;;;;;;;5070427;28;20190;-72
2022/03/20 08:36:04;;;;;;;18.63;15.15;;;;;;;;;;5069793;28;20677;-73
2022/03/20 08:38:31;;;;;;;17.25;12.90;;;;;;;;;;5065927;28;20224;-73
2022/03/20 08:40:59;;;;;;;19.05;13.55;;;;;;;;;;5072515;28;20186;-73
2022/03/20 08:43:27;;;;;;;18.77;12.15;;;;;;;;;;5073392;28;20185;-74
2022/03/20 08:45:54;;;;;;;19.15;13.73;;;;;;;;;;5066264;28;20233;-73
2022/03/20 08:48:21;;;;;;;17.02;11.05;;;;;;;;;;5083250;28;20201;-74
2022/03/20 08:50:49;;;;;;;17.77;13.60;;;;;;;;;;5072756;28;20217;-74
2022/03/20 08:53:18;;;;;;;16.98;13.30;;;;;;;;;;5069148;28;20232;-74
2022/03/20 08:55:45;;;;;;;20.30;14.05;;;;;;;;;;5070516;28;20248;-73
2022/03/20 08:58:12;;;;;;;17.80;13.77;;;;;;;;;;5083859;28;20202;-72
2022/03/20 09:00:41;;;;;;;23.38;14.40;;;;;;;;;;5064931;28;20192;-73
2022/03/20 09:03:10;;;;;;;21.20;13.98;;;;;;;;;;5070452;28;20202;-73
2022/03/20 09:05:37;;;;;;;20.25;15.00;;;;;;;;;;5070546;28;20333;-73
2022/03/20 09:08:05;;;;;;;21.00;14.07;;;;;;;;;;5067172;28;20190;-73
2022/03/20 09:10:32;;;;;;;21.70;14.95;;;;;;;;;;5061364;28;20608;-73
2022/03/20 09:13:00;;;;;;;17.77;13.82;;;;;;;;;;5062902;28;20661;-73
2022/03/20 09:15:31;;;;;;;18.38;14.50;;;;;;;;;;5061591;28;20194;-72
2022/03/20 09:20:44;;;;;;;24.45;14.45;;;;;;;;;;5059893;28;20634;-73
2022/03/20 09:23:12;;;;;;;21.35;14.23;;;;;;;;;;5061942;28;20204;-72
2022/03/20 09:25:40;;;;;;;19.13;14.48;;;;;;;;;;5066993;28;20577;-72
2022/03/20 09:28:08;;;;;;;22.65;15.65;;;;;;;;;;5063173;28;20293;-72
2022/03/20 09:30:36;;;;;;;16.83;14.02;;;;;;;;;;5064263;28;20194;-72
2022/03/20 09:33:05;;;;;;;20.92;14.27;;;;;;;;;;5065339;28;20652;-72
2022/03/20 09:35:33;;;;;;;22.88;16.38;;;;;;;;;;5068974;28;20202;-72
2022/03/20 09:38:00;;;;;;;20.00;15.50;;;;;;;;;;5060376;28;20672;-73
2022/03/20 09:40:27;;;;;;;20.45;14.23;;;;;;;;;;5057905;28;20198;-73
2022/03/20 09:42:54;;;;;;;19.63;15.07;;;;;;;;;;5065228;28;20668;-73
2022/03/20 09:45:21;;;;;;;18.98;15.30;;;;;;;;;;5063108;28;20228;-73
2022/03/20 09:47:49;;;;;;;24.70;17.98;;;;;;;;;;5067635;28;20198;-73
2022/03/20 09:50:17;;;;;;;17.60;15.00;;;;;;;;;;5059280;28;20197;-73
2022/03/20 09:52:44;;;;;;;18.55;15.68;;;;;;;;;;5069175;28;20265;-73
2022/03/20 09:55:12;;;;;;;18.88;14.80;;;;;;;;;;5061271;28;20216;-72
2022/03/20 09:57:39;;;;;;;22.13;17.05;;;;;;;;;;5067149;28;20672;-72
2022/03/20 10:00:11;;;;;;;25.55;15.57;;;;;;;;;;5067653;28;20198;-73
2022/03/20 10:02:38;;;;;;;23.20;18.30;;;;;;;;;;5065445;28;20194;-73
2022/03/20 10:05:06;;;;;;;24.15;16.58;;;;;;;;;;5065200;28;20206;-73
2022/03/20 10:07:36;;;;;;;20.67;15.20;;;;;;;;;;5058386;28;20205;-74
2022/03/20 10:10:07;;;;;;;23.50;17.48;;;;;;;;;;5065576;28;20198;-73
2022/03/20 10:12:35;;;;;;;20.90;15.25;;;;;;;;;;5066510;28;20703;-73
2022/03/20 10:15:02;;;;;;;21.95;16.25;;;;;;;;;;5062622;28;20213;-72
2022/03/20 10:17:29;;;;;;;25.45;16.20;;;;;;;;;;5066771;28;20222;-73
2022/03/20 10:20:12;;;;;;;19.05;16.75;;;;;;;;;;5068702;28;20201;-73
2022/03/20 10:22:41;;;;;;;16.83;13.60;;;;;;;;;;5069083;28;20568;-73
2022/03/20 10:25:11;;;;;;;22.27;17.80;;;;;;;;;;5064623;28;20220;-73
2022/03/20 10:27:38;;;;;;;19.25;14.57;;;;;;;;;;5062734;28;20201;-73
2022/03/20 10:30:08;;;;;;;22.98;17.08;;;;;;;;;;5066656;28;20198;-73
2022/03/20 10:32:36;;;;;;;22.75;16.48;;;;;;;;;;5058039;28;20191;-72
2022/03/20 10:35:04;;;;;;;21.67;17.35;;;;;;;;;;5069055;28;20546;-73
2022/03/20 10:37:49;;;;;;;19.77;15.95;;;;;;;;;;5065272;28;20222;-72
2022/03/20 10:40:19;;;;;;;21.58;17.30;;;;;;;;;;5067417;28;20190;-73
2022/03/20 10:43:06;;;;;;;20.55;17.10;;;;;;;;;;5069869;28;20220;-73
2022/03/20 10:45:33;;;;;;;18.77;14.43;;;;;;;;;;5058891;28;20254;-72
2022/03/20 10:48:01;;;;;;;20.50;15.98;;;;;;;;;;5066826;28;20557;-73
2022/03/20 10:50:28;;;;;;;22.25;17.92;;;;;;;;;;5069464;28;20281;-73
2022/03/20 10:53:07;;;;;;;24.25;18.02;;;;;;;;;;5066698;28;20245;-72
2022/03/20 10:55:36;;;;;;;22.02;17.17;;;;;;;;;;5057844;28;20190;-72
2022/03/20 10:58:18;;;;;;;21.63;16.80;;;;;;;;;;5070994;28;20201;-72
2022/03/20 11:00:46;;;;;;;24.05;15.57;;;;;;;;;;5071519;28;20239;-72
2022/03/20 11:03:14;;;;;;;22.45;16.90;;;;;;;;;;5076275;28;20289;-72
2022/03/20 11:05:43;;;;;;;19.70;16.27;;;;;;;;;;5069602;28;20241;-72
2022/03/20 11:08:10;;;;;;;22.02;18.73;;;;;;;;;;5072110;28;20199;-72
2022/03/20 11:10:38;;;;;;;24.98;16.90;;;;;;;;;;5073242;28;20198;-73
2022/03/20 11:13:06;;;;;;;25.50;18.17;;;;;;;;;;5071117;28;20194;-72
2022/03/20 11:15:34;;;;;;;20.02;16.33;;;;;;;;;;5062303;28;20259;-72
2022/03/20 11:18:02;;;;;;;22.27;16.65;;;;;;;;;;5072018;28;20560;-77
2022/03/20 11:20:31;;;;;;;20.05;15.48;;;;;;;;;;5071755;28;20198;-72
2022/03/20 11:23:01;;;;;;;19.52;16.60;;;;;;;;;;5063280;28;20217;-72
2022/03/20 11:25:31;;;;;;;18.92;14.88;;;;;;;;;;5071142;28;20218;-71
2022/03/20 11:28:01;;;;;;;23.30;16.15;;;;;;;;;;5071294;28;20209;-72
2022/03/20 11:30:29;;;;;;;17.90;14.43;;;;;;;;;;5068651;28;20599;-75
2022/03/20 11:32:58;;;;;;;18.90;16.15;;;;;;;;;;5071276;28;20190;-73
2022/03/20 11:35:28;;;;;;;20.45;16.35;;;;;;;;;;5072203;28;20253;-73
2022/03/20 11:37:58;;;;;;;21.42;16.65;;;;;;;;;;5066120;28;20199;-74
2022/03/20 11:40:26;;;;;;;24.63;18.15;;;;;;;;;;5071749;28;20198;-74
2022/03/20 11:43:13;;;;;;;21.60;16.38;;;;;;;;;;5071905;28;20206;-73
2022/03/20 11:45:41;;;;;;;23.23;16.17;;;;;;;;;;5061065;28;20190;-74
2022/03/20 11:48:13;;;;;;;20.58;16.50;;;;;;;;;;5081940;22;20723;-77
2022/03/20 11:50:42;;;;;;;21.60;16.92;;;;;;;;;;5029055;28;20261;-77
2022/03/20 11:53:09;;;;;;;23.40;17.13;;;;;;;;;;5026553;28;20223;-80
2022/03/20 11:55:37;;;;;;;19.17;16.95;;;;;;;;;;5031150;28;20230;-78
2022/03/20 11:58:06;;;;;;;21.52;17.70;;;;;;;;;;5032406;28;20685;-80
2022/03/20 12:00:34;;;;;;;24.33;17.13;;;;;;;;;;5031501;28;20199;-78
2022/03/20 12:03:20;;;;;;;22.40;14.95;;;;;;;;;;5022860;28;20199;-78
2022/03/20 12:06:04;;;;;;;25.63;20.00;;;;;;;;;;5025342;28;20203;-78
2022/03/20 12:08:37;;;;;;;22.70;16.83;;;;;;;;;;5024299;28;20712;-78
2022/03/20 12:11:10;;;;;;;23.52;16.88;;;;;;;;;;5027614;28;20195;-79
2022/03/20 12:13:45;;;;;;;22.63;17.13;;;;;;;;;;5026898;28;20291;-78
2022/03/20 12:16:12;;;;;;;22.63;17.60;;;;;;;;;;5017793;28;20729;-78
2022/03/20 12:18:58;;;;;;;21.38;15.48;;;;;;;;;;5017474;28;20208;-78
2022/03/20 12:21:51;;;;;;;24.88;17.35;;;;;;;;;;5028109;28;20561;-76
2022/03/20 12:24:37;;;;;;;30.52;21.05;;;;;;;;;;5025063;28;20559;-79
2022/03/20 12:27:19;;;;;;;21.13;17.20;;;;;;;;;;5024711;28;20678;-79
2022/03/20 12:29:47;;;;;;;25.50;19.83;;;;;;;;;;5028222;28;20235;-78
2022/03/20 12:32:14;;;;;;;24.73;17.88;;;;;;;;;;5026321;28;20206;-79
2022/03/20 12:34:42;;;;;;;22.55;17.15;;;;;;;;;;5022759;28;20254;-79
2022/03/20 12:37:37;;;;;;;24.15;18.35;;;;;;;;;;5024733;28;20203;-78
2022/03/20 12:40:09;;;;;;;25.13;18.92;;;;;;;;;;5029191;28;20233;-79
2022/03/20 12:42:38;;;;;;;24.60;18.75;;;;;;;;;;5028763;28;20674;-78
2022/03/20 12:45:06;;;;;;;21.08;16.85;;;;;;;;;;5026469;28;20204;-79
2022/03/20 12:47:33;;;;;;;23.63;17.48;;;;;;;;;;5025402;28;20211;-78
2022/03/20 12:50:01;;;;;;;22.67;18.23;;;;;;;;;;5018233;28;20666;-78
2022/03/20 12:52:30;;;;;;;25.17;18.90;;;;;;;;;;5029970;28;20203;-78
2022/03/20 12:54:59;;;;;;;23.98;18.20;;;;;;;;;;5024180;28;20230;-78
2022/03/20 12:57:40;;;;;;;21.23;18.48;;;;;;;;;;5026789;28;20203;-78
2022/03/20 13:00:08;;;;;;;25.83;19.95;;;;;;;;;;5029060;28;20286;-78
2022/03/20 13:02:36;;;;;;;16.55;14.73;;;;;;;;;;5028924;28;20207;-78
2022/03/20 13:05:10;;;;;;;18.92;16.88;;;;;;;;;;5026663;28;20200;-78
2022/03/20 13:07:39;;;;;;;26.85;18.42;;;;;;;;;;5021863;28;20258;-78
2022/03/20 13:10:10;;;;;;;22.80;17.33;;;;;;;;;;5029429;28;20199;-78
2022/03/20 13:12:50;;;;;;;20.58;16.27;;;;;;;;;;5027130;28;20276;-78
2022/03/20 13:15:22;;;;;;;25.83;17.58;;;;;;;;;;5027408;28;20254;-79
2022/03/20 13:17:49;;;;;;;23.60;19.00;;;;;;;;;;5025137;28;20199;-79
2022/03/20 13:20:17;;;;;;;24.17;17.60;;;;;;;;;;5022328;28;20249;-78
2022/03/20 13:22:44;;;;;;;23.00;16.30;;;;;;;;;;5021753;28;20207;-79
2022/03/20 13:25:20;;;;;;;21.30;17.90;;;;;;;;;;5025084;28;20207;-78
2022/03/20 13:27:48;;;;;;;25.48;18.50;;;;;;;;;;5025706;28;20214;-79
2022/03/20 13:30:16;;;;;;;23.40;17.20;;;;;;;;;;5023061;28;20735;-79
2022/03/20 13:32:43;;;;;;;25.77;17.02;;;;;;;;;;5027639;28;20203;-79
2022/03/20 13:35:11;;;;;;;20.92;17.63;;;;;;;;;;5022372;28;20199;-78
2022/03/20 13:37:38;;;;;;;27.98;18.48;;;;;;;;;;5025345;28;20731;-79
2022/03/20 13:40:07;;;;;;;30.15;18.58;;;;;;;;;;5028818;28;20196;-78
2022/03/20 13:42:36;;;;;;;24.83;18.55;;;;;;;;;;5027455;28;20195;-79
2022/03/20 13:45:03;;;;;;;19.02;16.40;;;;;;;;;;5018433;28;20204;-79
2022/03/20 13:47:30;;;;;;;19.10;16.58;;;;;;;;;;5025071;28;20215;-78
2022/03/20 13:49:59;;;;;;;21.77;18.13;;;;;;;;;;5026733;28;20265;-79
2022/03/20 13:52:29;;;;;;;24.45;18.55;;;;;;;;;;5026838;28;20677;-78
2022/03/20 13:55:00;;;;;;;22.58;18.77;;;;;;;;;;5022128;28;20305;-80
2022/03/20 13:57:28;;;;;;;25.45;18.02;;;;;;;;;;5026128;28;20254;-78
2022/03/20 13:59:59;;;;;;;26.88;18.67;;;;;;;;;;5026106;28;20203;-79
2022/03/20 14:02:27;;;;;;;23.35;16.80;;;;;;;;;;5023404;28;20195;-79
2022/03/20 14:04:57;;;;;;;21.60;16.25;;;;;;;;;;5023848;28;20203;-78
2022/03/20 14:07:25;;;;;;;21.77;16.70;;;;;;;;;;5019198;28;20650;-78
2022/03/20 14:09:53;;;;;;;23.15;16.55;;;;;;;;;;5028302;28;20215;-79
2022/03/20 14:12:27;;;;;;;23.55;17.33;;;;;;;;;;5025942;28;20290;-79
2022/03/20 14:14:54;;;;;;;19.70;15.27;;;;;;;;;;5026335;28;20278;-78
2022/03/20 14:17:38;;;;;;;20.40;16.67;;;;;;;;;;5026376;28;20196;-79
2022/03/20 14:20:09;;;;;;;22.55;17.48;;;;;;;;;;5028449;28;20227;-78
2022/03/20 14:22:43;;;;;;;23.05;16.33;;;;;;;;;;5011505;28;20293;-78
2022/03/20 14:25:14;;;;;;;21.90;16.27;;;;;;;;;;5026089;28;20226;-78
2022/03/20 14:27:42;;;;;;;19.65;15.20;;;;;;;;;;5023669;28;20690;-79
2022/03/20 14:41:28;;;;;;;18.17;14.90;;;;;;;;;;5020636;28;20242;-80
2022/03/20 14:44:06;;;;;;;19.77;15.15;;;;;;;;;;5023337;28;20199;-80
2022/03/20 14:46:33;;;;;;;17.67;13.48;;;;;;;;;;5027251;28;20203;-80
2022/03/20 14:49:00;;;;;;;17.20;13.68;;;;;;;;;;5030782;28;20237;-80
2022/03/20 14:51:30;;;;;;;18.25;13.82;;;;;;;;;;5028264;28;20187;-79
2022/03/20 14:53:57;;;;;;;16.90;13.35;;;;;;;;;;5026946;28;20207;-78
2022/03/20 14:56:25;;;;;;;20.17;13.18;;;;;;;;;;5022643;28;20195;-78
2022/03/20 14:58:53;;;;;;;22.52;13.32;;;;;;;;;;5027652;28;20227;-79
2022/03/20 15:01:20;;;;;;;15.57;12.57;;;;;;;;;;5021457;28;20214;-79
2022/03/20 15:03:47;;;;;;;15.32;13.25;;;;;;;;;;5025666;28;20203;-79
2022/03/20 15:06:14;;;;;;;16.20;13.50;;;;;;;;;;5021436;28;20200;-79